sensor_id;sensor_type;location;lat;lon;timestamp;pressure;altitude;pressure_sealevel;temperature;humidity
829;BME280;396;52.558;13.188;2022-11-15T00:00:56;100965.03;;;7.58;100.00
829;BME280;396;52.558;13.188;2022-11-15T00:03:25;100964.75;;;7.59;100.00
829;BME280;396;52.558;13.188;2022-11-15T00:05:52;100964.22;;;7.52;100.00
829;BME280;396;52.558;13.188;2022-11-15T00:08:19;100962.34;;;7.48;100.00
829;BME280;396;52.558;13.188;2022-11-15T00:10:54;100964.50;;;7.41;100.00
829;BME280;396;52.558;13.188;2022-11-15T00:13:22;100955.63;;;7.45;100.00
829;BME280;396;52.558;13.188;2022-11-15T00:15:49;100958.59;;;7.44;99.81
829;BME280;396;52.558;13.188;2022-11-15T00:18:16;100954.00;;;7.34;99.84
829;BME280;396;52.558;13.188;2022-11-15T00:20:43;100943.50;;;7.27;99.89
829;BME280;396;52.558;13.188;2022-11-15T00:23:10;100944.59;;;7.26;99.38
829;BME280;396;52.558;13.188;2022-11-15T00:25:37;100940.00;;;7.27;100.00
829;BME280;396;52.558;13.188;2022-11-15T00:28:03;100943.22;;;7.29;100.00
829;BME280;396;52.558;13.188;2022-11-15T00:30:32;100940.00;;;7.32;100.00
829;BME280;396;52.558;13.188;2022-11-15T00:33:02;100940.28;;;7.36;100.00
829;BME280;396;52.558;13.188;2022-11-15T00:35:31;100931.91;;;7.37;100.00
829;BME280;396;52.558;13.188;2022-11-15T00:37:57;100932.19;;;7.30;100.00
829;BME280;396;52.558;13.188;2022-11-15T00:40:24;100932.44;;;7.29;100.00
829;BME280;396;52.558;13.188;2022-11-15T00:42:51;100934.88;;;7.36;100.00
829;BME280;396;52.558;13.188;2022-11-15T00:45:17;100926.25;;;7.33;100.00
829;BME280;396;52.558;13.188;2022-11-15T00:47:45;100930.53;;;7.34;100.00
829;BME280;396;52.558;13.188;2022-11-15T00:50:12;100921.13;;;7.32;100.00
829;BME280;396;52.558;13.188;2022-11-15T00:52:39;100928.41;;;7.31;100.00
829;BME280;396;52.558;13.188;2022-11-15T00:55:06;100925.72;;;7.31;100.00
829;BME280;396;52.558;13.188;2022-11-15T00:57:33;100922.47;;;7.29;100.00
829;BME280;396;52.558;13.188;2022-11-15T00:59:59;100925.19;;;7.24;100.00
829;BME280;396;52.558;13.188;2022-11-15T01:02:26;100908.50;;;7.22;100.00
829;BME280;396;52.558;13.188;2022-11-15T01:04:54;100909.28;;;7.18;99.90
829;BME280;396;52.558;13.188;2022-11-15T01:07:21;100907.94;;;7.05;99.50
829;BME280;396;52.558;13.188;2022-11-15T01:09:47;100912.50;;;6.99;100.00
829;BME280;396;52.558;13.188;2022-11-15T01:12:14;100912.25;;;7.01;99.96
829;BME280;396;52.558;13.188;2022-11-15T01:14:41;100905.25;;;7.00;99.82
829;BME280;396;52.558;13.188;2022-11-15T01:17:07;100908.19;;;6.93;99.61
829;BME280;396;52.558;13.188;2022-11-15T01:19:34;100907.41;;;6.98;99.95
829;BME280;396;52.558;13.188;2022-11-15T01:22:02;100901.72;;;6.99;100.00
829;BME280;396;52.558;13.188;2022-11-15T01:24:28;100890.16;;;6.94;100.00
829;BME280;396;52.558;13.188;2022-11-15T01:26:55;100893.94;;;6.98;100.00
829;BME280;396;52.558;13.188;2022-11-15T01:29:22;100888.81;;;7.01;100.00
829;BME280;396;52.558;13.188;2022-11-15T01:31:48;100885.31;;;7.06;100.00
829;BME280;396;52.558;13.188;2022-11-15T01:34:15;100878.31;;;7.05;100.00
829;BME280;396;52.558;13.188;2022-11-15T01:36:41;100888.00;;;7.06;100.00
829;BME280;396;52.558;13.188;2022-11-15T01:39:09;100881.53;;;7.07;100.00
829;BME280;396;52.558;13.188;2022-11-15T01:41:36;100880.47;;;7.13;100.00
829;BME280;396;52.558;13.188;2022-11-15T01:44:41;100864.31;;;7.13;100.00
829;BME280;396;52.558;13.188;2022-11-15T01:47:12;100861.88;;;7.12;100.00
829;BME280;396;52.558;13.188;2022-11-15T01:49:49;100861.59;;;7.08;100.00
829;BME280;396;52.558;13.188;2022-11-15T01:52:19;100852.47;;;7.04;100.00
829;BME280;396;52.558;13.188;2022-11-15T01:54:49;100848.69;;;7.05;100.00
829;BME280;396;52.558;13.188;2022-11-15T01:57:17;100844.41;;;7.04;100.00
829;BME280;396;52.558;13.188;2022-11-15T01:59:44;100843.84;;;7.02;100.00
829;BME280;396;52.558;13.188;2022-11-15T02:02:12;100845.19;;;6.99;100.00
829;BME280;396;52.558;13.188;2022-11-15T02:04:41;100846.00;;;6.95;100.00
829;BME280;396;52.558;13.188;2022-11-15T02:07:09;100847.88;;;6.89;100.00
829;BME280;396;52.558;13.188;2022-11-15T02:09:37;100844.09;;;6.90;100.00
829;BME280;396;52.558;13.188;2022-11-15T02:12:07;100840.34;;;6.96;100.00
829;BME280;396;52.558;13.188;2022-11-15T02:14:36;100840.88;;;6.98;100.00
829;BME280;396;52.558;13.188;2022-11-15T02:17:13;100840.63;;;7.05;100.00
829;BME280;396;52.558;13.188;2022-11-15T02:22:57;100841.41;;;7.05;100.00
829;BME280;396;52.558;13.188;2022-11-15T02:25:37;100850.31;;;7.06;100.00
829;BME280;396;52.558;13.188;2022-11-15T02:28:41;100840.06;;;7.03;100.00
829;BME280;396;52.558;13.188;2022-11-15T02:31:14;100833.06;;;7.02;100.00
829;BME280;396;52.558;13.188;2022-11-15T02:33:50;100836.84;;;6.96;100.00
829;BME280;396;52.558;13.188;2022-11-15T02:36:28;100838.47;;;6.92;100.00
829;BME280;396;52.558;13.188;2022-11-15T02:39:03;100830.41;;;6.87;100.00
829;BME280;396;52.558;13.188;2022-11-15T02:41:40;100829.03;;;6.89;100.00
829;BME280;396;52.558;13.188;2022-11-15T02:44:13;100822.31;;;6.87;100.00
829;BME280;396;52.558;13.188;2022-11-15T02:46:46;100826.06;;;6.86;100.00
829;BME280;396;52.558;13.188;2022-11-15T02:49:34;100823.94;;;6.82;100.00
829;BME280;396;52.558;13.188;2022-11-15T02:52:01;100823.38;;;6.80;100.00
829;BME280;396;52.558;13.188;2022-11-15T02:54:30;100817.47;;;6.78;100.00
829;BME280;396;52.558;13.188;2022-11-15T02:57:01;100816.13;;;6.76;99.98
829;BME280;396;52.558;13.188;2022-11-15T02:59:51;100813.16;;;6.72;100.00
829;BME280;396;52.558;13.188;2022-11-15T03:02:36;100813.16;;;6.67;100.00
829;BME280;396;52.558;13.188;2022-11-15T03:05:12;100813.44;;;6.71;100.00
829;BME280;396;52.558;13.188;2022-11-15T03:07:48;100821.50;;;6.76;100.00
829;BME280;396;52.558;13.188;2022-11-15T03:10:21;100812.63;;;6.75;100.00
829;BME280;396;52.558;13.188;2022-11-15T03:12:55;100807.22;;;6.80;100.00
829;BME280;396;52.558;13.188;2022-11-15T03:15:26;100811.56;;;6.87;100.00
829;BME280;396;52.558;13.188;2022-11-15T03:17:58;100809.91;;;6.86;100.00
829;BME280;396;52.558;13.188;2022-11-15T03:20:27;100810.47;;;6.93;100.00
829;BME280;396;52.558;13.188;2022-11-15T03:22:57;100809.38;;;6.99;100.00
829;BME280;396;52.558;13.188;2022-11-15T03:25:28;100810.44;;;6.98;100.00
829;BME280;396;52.558;13.188;2022-11-15T03:27:57;100807.22;;;7.01;100.00
829;BME280;396;52.558;13.188;2022-11-15T03:30:25;100805.34;;;6.96;100.00
829;BME280;396;52.558;13.188;2022-11-15T03:32:56;100804.53;;;6.96;100.00
829;BME280;396;52.558;13.188;2022-11-15T03:35:25;100803.47;;;6.92;100.00
829;BME280;396;52.558;13.188;2022-11-15T03:37:57;100808.31;;;6.85;100.00
829;BME280;396;52.558;13.188;2022-11-15T03:40:30;100810.47;;;6.82;100.00
829;BME280;396;52.558;13.188;2022-11-15T03:43:05;100803.72;;;6.85;100.00
829;BME280;396;52.558;13.188;2022-11-15T03:45:40;100803.72;;;6.85;100.00
829;BME280;396;52.558;13.188;2022-11-15T03:48:13;100807.78;;;6.82;100.00
829;BME280;396;52.558;13.188;2022-11-15T03:50:41;100800.50;;;6.83;100.00
829;BME280;396;52.558;13.188;2022-11-15T03:53:09;100803.72;;;6.85;100.00
829;BME280;396;52.558;13.188;2022-11-15T03:55:36;100801.84;;;6.86;100.00
829;BME280;396;52.558;13.188;2022-11-15T03:58:02;100795.91;;;6.89;100.00
829;BME280;396;52.558;13.188;2022-11-15T04:00:29;100796.47;;;6.91;100.00
829;BME280;396;52.558;13.188;2022-11-15T04:02:56;100799.69;;;6.93;100.00
829;BME280;396;52.558;13.188;2022-11-15T04:05:24;100797.53;;;6.95;100.00
829;BME280;396;52.558;13.188;2022-11-15T04:07:50;100791.34;;;6.94;100.00
829;BME280;396;52.558;13.188;2022-11-15T04:10:17;100794.28;;;6.98;100.00
829;BME280;396;52.558;13.188;2022-11-15T04:12:45;100794.56;;;6.96;100.00
829;BME280;396;52.558;13.188;2022-11-15T04:15:15;100798.34;;;6.95;100.00
829;BME280;396;52.558;13.188;2022-11-15T04:17:43;100791.63;;;6.88;100.00
829;BME280;396;52.558;13.188;2022-11-15T04:20:12;100796.72;;;6.94;100.00
829;BME280;396;52.558;13.188;2022-11-15T04:22:59;100801.84;;;6.96;100.00
829;BME280;396;52.558;13.188;2022-11-15T04:25:44;100801.59;;;6.87;100.00
829;BME280;396;52.558;13.188;2022-11-15T04:28:11;100803.19;;;6.88;100.00
829;BME280;396;52.558;13.188;2022-11-15T04:30:38;100795.94;;;6.78;100.00
829;BME280;396;52.558;13.188;2022-11-15T04:33:05;100797.25;;;6.86;100.00
829;BME280;396;52.558;13.188;2022-11-15T04:35:31;100791.09;;;6.80;100.00
829;BME280;396;52.558;13.188;2022-11-15T04:38:00;100781.41;;;6.79;100.00
829;BME280;396;52.558;13.188;2022-11-15T04:40:26;100787.84;;;6.68;100.00
829;BME280;396;52.558;13.188;2022-11-15T04:42:53;100786.81;;;6.64;100.00
829;BME280;396;52.558;13.188;2022-11-15T04:45:19;100785.44;;;6.72;100.00
829;BME280;396;52.558;13.188;2022-11-15T04:47:46;100778.19;;;6.62;100.00
829;BME280;396;52.558;13.188;2022-11-15T04:50:14;100783.56;;;6.67;100.00
829;BME280;396;52.558;13.188;2022-11-15T04:52:41;100774.94;;;6.65;100.00
829;BME280;396;52.558;13.188;2022-11-15T04:55:10;100779.25;;;6.66;100.00
829;BME280;396;52.558;13.188;2022-11-15T04:57:37;100777.63;;;6.70;100.00
829;BME280;396;52.558;13.188;2022-11-15T05:00:05;100773.56;;;6.73;100.00
829;BME280;396;52.558;13.188;2022-11-15T05:02:32;100781.13;;;6.71;100.00
829;BME280;396;52.558;13.188;2022-11-15T05:05:13;100781.94;;;6.66;100.00
829;BME280;396;52.558;13.188;2022-11-15T05:07:39;100786.22;;;6.72;100.00
829;BME280;396;52.558;13.188;2022-11-15T05:10:06;100790.81;;;6.72;100.00
829;BME280;396;52.558;13.188;2022-11-15T05:12:34;100790.81;;;6.67;100.00
829;BME280;396;52.558;13.188;2022-11-15T05:15:01;100784.91;;;6.65;100.00
829;BME280;396;52.558;13.188;2022-11-15T05:17:28;100791.91;;;6.61;100.00
829;BME280;396;52.558;13.188;2022-11-15T05:19:54;100792.44;;;6.57;100.00
829;BME280;396;52.558;13.188;2022-11-15T05:22:21;100787.84;;;6.58;100.00
829;BME280;396;52.558;13.188;2022-11-15T05:24:48;100789.47;;;6.59;100.00
829;BME280;396;52.558;13.188;2022-11-15T05:27:14;100786.25;;;6.47;100.00
829;BME280;396;52.558;13.188;2022-11-15T05:29:42;100784.09;;;6.49;100.00
829;BME280;396;52.558;13.188;2022-11-15T05:32:09;100782.50;;;6.38;99.33
829;BME280;396;52.558;13.188;2022-11-15T05:34:38;100786.50;;;6.20;98.79
829;BME280;396;52.558;13.188;2022-11-15T05:37:04;100782.47;;;6.22;98.61
829;BME280;396;52.558;13.188;2022-11-15T05:39:31;100780.00;;;6.05;97.86
829;BME280;396;52.558;13.188;2022-11-15T05:42:01;100770.03;;;5.96;98.02
829;BME280;396;52.558;13.188;2022-11-15T05:44:31;100775.94;;;5.93;98.86
829;BME280;396;52.558;13.188;2022-11-15T05:46:59;100775.09;;;5.87;99.78
829;BME280;396;52.558;13.188;2022-11-15T05:49:29;100778.63;;;5.93;99.66
829;BME280;396;52.558;13.188;2022-11-15T05:51:56;100785.31;;;5.80;100.00
829;BME280;396;52.558;13.188;2022-11-15T05:54:24;100780.16;;;5.73;100.00
829;BME280;396;52.558;13.188;2022-11-15T05:56:52;100779.63;;;5.71;100.00
829;BME280;396;52.558;13.188;2022-11-15T05:59:19;100773.69;;;5.64;100.00
829;BME280;396;52.558;13.188;2022-11-15T06:01:46;100783.66;;;5.74;100.00
829;BME280;396;52.558;13.188;2022-11-15T06:04:13;100775.56;;;5.64;100.00
829;BME280;396;52.558;13.188;2022-11-15T06:06:40;100775.53;;;5.59;100.00
829;BME280;396;52.558;13.188;2022-11-15T06:09:07;100777.97;;;5.60;100.00
829;BME280;396;52.558;13.188;2022-11-15T06:11:33;100783.63;;;5.64;100.00
829;BME280;396;52.558;13.188;2022-11-15T06:14:00;100777.72;;;5.67;100.00
829;BME280;396;52.558;13.188;2022-11-15T06:16:26;100784.41;;;5.54;100.00
829;BME280;396;52.558;13.188;2022-11-15T06:18:53;100780.50;;;5.29;100.00
829;BME280;396;52.558;13.188;2022-11-15T06:21:21;100788.03;;;5.27;99.67
829;BME280;396;52.558;13.188;2022-11-15T06:23:47;100785.84;;;5.24;99.27
829;BME280;396;52.558;13.188;2022-11-15T06:26:14;100794.44;;;5.26;98.40
829;BME280;396;52.558;13.188;2022-11-15T06:28:41;100787.75;;;5.24;99.01
829;BME280;396;52.558;13.188;2022-11-15T06:31:09;100784.22;;;5.18;98.05
829;BME280;396;52.558;13.188;2022-11-15T06:33:36;100783.91;;;5.10;98.53
829;BME280;396;52.558;13.188;2022-11-15T06:36:05;100781.53;;;5.18;98.08
829;BME280;396;52.558;13.188;2022-11-15T06:38:34;100785.56;;;5.21;98.55
829;BME280;396;52.558;13.188;2022-11-15T06:41:01;100786.38;;;5.21;99.37
829;BME280;396;52.558;13.188;2022-11-15T06:43:28;100788.50;;;5.19;99.96
829;BME280;396;52.558;13.188;2022-11-15T06:45:55;100788.28;;;5.26;99.97
829;BME280;396;52.558;13.188;2022-11-15T06:48:21;100797.97;;;5.27;100.00
829;BME280;396;52.558;13.188;2022-11-15T06:50:50;100799.25;;;5.19;100.00
829;BME280;396;52.558;13.188;2022-11-15T06:53:17;100805.09;;;5.06;98.77
829;BME280;396;52.558;13.188;2022-11-15T06:55:45;100796.25;;;5.11;98.67
829;BME280;396;52.558;13.188;2022-11-15T06:58:12;100802.63;;;5.04;98.23
829;BME280;396;52.558;13.188;2022-11-15T07:00:38;100801.63;;;5.11;97.47
829;BME280;396;52.558;13.188;2022-11-15T07:03:05;100796.44;;;4.99;97.15
829;BME280;396;52.558;13.188;2022-11-15T07:05:32;100811.22;;;5.01;96.96
829;BME280;396;52.558;13.188;2022-11-15T07:07:59;100814.22;;;5.05;97.94
829;BME280;396;52.558;13.188;2022-11-15T07:10:26;100815.03;;;5.11;97.41
829;BME280;396;52.558;13.188;2022-11-15T07:12:55;100813.75;;;5.18;97.16
829;BME280;396;52.558;13.188;2022-11-15T07:15:24;100814.78;;;5.12;97.39
829;BME280;396;52.558;13.188;2022-11-15T07:17:51;100812.19;;;5.22;97.48
829;BME280;396;52.558;13.188;2022-11-15T07:20:18;100818.38;;;5.28;98.79
829;BME280;396;52.558;13.188;2022-11-15T07:22:45;100826.19;;;5.35;99.83
829;BME280;396;52.558;13.188;2022-11-15T07:25:11;100823.00;;;5.43;100.00
829;BME280;396;52.558;13.188;2022-11-15T07:27:38;100822.53;;;5.51;100.00
829;BME280;396;52.558;13.188;2022-11-15T07:30:07;100820.41;;;5.58;100.00
829;BME280;396;52.558;13.188;2022-11-15T07:32:34;100820.44;;;5.63;100.00
829;BME280;396;52.558;13.188;2022-11-15T07:35:01;100820.44;;;5.63;100.00
829;BME280;396;52.558;13.188;2022-11-15T07:37:27;100823.97;;;5.79;100.00
829;BME280;396;52.558;13.188;2022-11-15T07:39:54;100820.50;;;5.89;100.00
829;BME280;396;52.558;13.188;2022-11-15T07:42:21;100818.94;;;5.93;100.00
829;BME280;396;52.558;13.188;2022-11-15T07:45:07;100820.88;;;6.02;100.00
829;BME280;396;52.558;13.188;2022-11-15T07:47:33;100816.63;;;6.17;100.00
829;BME280;396;52.558;13.188;2022-11-15T07:50:00;100812.59;;;6.29;100.00
829;BME280;396;52.558;13.188;2022-11-15T07:52:26;100813.13;;;6.31;100.00
829;BME280;396;52.558;13.188;2022-11-15T07:54:53;100811.81;;;6.44;100.00
829;BME280;396;52.558;13.188;2022-11-15T07:57:20;100813.97;;;6.57;100.00
829;BME280;396;52.558;13.188;2022-11-15T07:59:46;100810.75;;;6.66;100.00
829;BME280;396;52.558;13.188;2022-11-15T08:02:14;100811.81;;;6.80;100.00
829;BME280;396;52.558;13.188;2022-11-15T08:04:42;100799.69;;;6.88;100.00
829;BME280;396;52.558;13.188;2022-11-15T08:07:10;100811.53;;;6.97;100.00
829;BME280;396;52.558;13.188;2022-11-15T08:09:36;100804.50;;;7.11;100.00
829;BME280;396;52.558;13.188;2022-11-15T08:12:03;100812.56;;;7.21;100.00
829;BME280;396;52.558;13.188;2022-11-15T08:14:30;100817.66;;;7.33;100.00
829;BME280;396;52.558;13.188;2022-11-15T08:16:57;100818.72;;;7.42;100.00
829;BME280;396;52.558;13.188;2022-11-15T08:19:25;100807.88;;;7.52;100.00
829;BME280;396;52.558;13.188;2022-11-15T08:21:51;100812.16;;;7.69;100.00
829;BME280;396;52.558;13.188;2022-11-15T08:24:18;100815.38;;;7.76;100.00
829;BME280;396;52.558;13.188;2022-11-15T08:26:45;100806.97;;;7.82;100.00
829;BME280;396;52.558;13.188;2022-11-15T08:29:12;100810.72;;;7.87;100.00
829;BME280;396;52.558;13.188;2022-11-15T08:31:39;100816.06;;;7.97;100.00
829;BME280;396;52.558;13.188;2022-11-15T08:34:06;100817.88;;;8.12;100.00
829;BME280;396;52.558;13.188;2022-11-15T08:36:34;100818.06;;;8.25;100.00
829;BME280;396;52.558;13.188;2022-11-15T08:39:01;100826.09;;;8.35;100.00
829;BME280;396;52.558;13.188;2022-11-15T08:41:31;100817.13;;;8.50;100.00
829;BME280;396;52.558;13.188;2022-11-15T08:43:57;100812.44;;;8.61;100.00
829;BME280;396;52.558;13.188;2022-11-15T08:46:24;100821.25;;;8.72;100.00
829;BME280;396;52.558;13.188;2022-11-15T08:48:51;100813.91;;;8.82;100.00
829;BME280;396;52.558;13.188;2022-11-15T08:51:17;100810.28;;;8.92;99.60
829;BME280;396;52.558;13.188;2022-11-15T08:53:45;100815.69;;;8.92;98.64
829;BME280;396;52.558;13.188;2022-11-15T08:56:14;100807.28;;;8.99;98.09
829;BME280;396;52.558;13.188;2022-11-15T08:58:40;100807.16;;;9.09;98.08
829;BME280;396;52.558;13.188;2022-11-15T09:01:14;100801.16;;;9.17;97.62
829;BME280;396;52.558;13.188;2022-11-15T09:03:41;100799.19;;;9.23;97.52
829;BME280;396;52.558;13.188;2022-11-15T09:06:08;100803.69;;;9.32;97.18
829;BME280;396;52.558;13.188;2022-11-15T09:08:34;100804.94;;;9.40;96.78
829;BME280;396;52.558;13.188;2022-11-15T09:11:04;100805.38;;;9.47;96.77
829;BME280;396;52.558;13.188;2022-11-15T09:13:31;100805.28;;;9.57;96.18
829;BME280;396;52.558;13.188;2022-11-15T09:15:58;100805.47;;;9.66;95.94
829;BME280;396;52.558;13.188;2022-11-15T09:18:25;100808.09;;;9.71;95.47
829;BME280;396;52.558;13.188;2022-11-15T09:20:55;100813.16;;;9.78;94.88
829;BME280;396;52.558;13.188;2022-11-15T09:23:22;100805.78;;;9.83;94.88
829;BME280;396;52.558;13.188;2022-11-15T09:25:49;100814.06;;;9.92;94.25
829;BME280;396;52.558;13.188;2022-11-15T09:28:17;100813.69;;;9.99;93.50
829;BME280;396;52.558;13.188;2022-11-15T09:30:43;100811.94;;;10.08;93.77
829;BME280;396;52.558;13.188;2022-11-15T09:33:11;100814.22;;;10.20;92.88
829;BME280;396;52.558;13.188;2022-11-15T09:35:38;100819.28;;;10.26;91.96
829;BME280;396;52.558;13.188;2022-11-15T09:38:06;100813.28;;;10.29;90.67
829;BME280;396;52.558;13.188;2022-11-15T09:40:35;100815.44;;;10.32;90.29
829;BME280;396;52.558;13.188;2022-11-15T09:43:17;100816.16;;;10.38;89.95
829;BME280;396;52.558;13.188;2022-11-15T09:45:56;100812.78;;;10.46;90.24
829;BME280;396;52.558;13.188;2022-11-15T09:48:47;100813.41;;;10.57;90.61
829;BME280;396;52.558;13.188;2022-11-15T09:51:23;100817.84;;;10.67;89.82
829;BME280;396;52.558;13.188;2022-11-15T09:54:00;100817.28;;;10.70;89.71
829;BME280;396;52.558;13.188;2022-11-15T09:56:30;100816.09;;;10.76;89.13
829;BME280;396;52.558;13.188;2022-11-15T09:59:04;100802.75;;;10.79;88.76
829;BME280;396;52.558;13.188;2022-11-15T10:01:45;100798.66;;;10.82;89.12
829;BME280;396;52.558;13.188;2022-11-15T10:04:16;100797.25;;;10.84;89.04
829;BME280;396;52.558;13.188;2022-11-15T10:06:47;100795.53;;;10.89;88.51
829;BME280;396;52.558;13.188;2022-11-15T10:09:20;100794.50;;;11.03;88.70
829;BME280;396;52.558;13.188;2022-11-15T10:11:47;100787.06;;;11.09;87.37
829;BME280;396;52.558;13.188;2022-11-15T10:14:17;100789.06;;;11.03;87.91
829;BME280;396;52.558;13.188;2022-11-15T10:17:02;100788.50;;;11.20;87.14
829;BME280;396;52.558;13.188;2022-11-15T10:19:36;100774.94;;;11.34;86.61
829;BME280;396;52.558;13.188;2022-11-15T10:22:18;100778.34;;;11.40;87.27
829;BME280;396;52.558;13.188;2022-11-15T10:24:47;100770.00;;;11.50;87.55
829;BME280;396;52.558;13.188;2022-11-15T10:27:15;100770.59;;;11.60;87.64
829;BME280;396;52.558;13.188;2022-11-15T10:29:43;100760.00;;;11.73;87.02
829;BME280;396;52.558;13.188;2022-11-15T10:32:13;100758.50;;;11.80;84.49
829;BME280;396;52.558;13.188;2022-11-15T10:34:40;100757.81;;;11.89;84.34
829;BME280;396;52.558;13.188;2022-11-15T10:37:07;100744.81;;;11.99;85.98
829;BME280;396;52.558;13.188;2022-11-15T10:39:34;100745.88;;;12.12;85.48
829;BME280;396;52.558;13.188;2022-11-15T10:42:15;100734.66;;;12.27;85.04
829;BME280;396;52.558;13.188;2022-11-15T10:44:44;100741.94;;;12.41;84.57
829;BME280;396;52.558;13.188;2022-11-15T10:47:26;100734.19;;;12.56;83.67
829;BME280;396;52.558;13.188;2022-11-15T10:49:55;100728.56;;;12.75;83.14
829;BME280;396;52.558;13.188;2022-11-15T10:52:23;100726.84;;;12.79;83.19
829;BME280;396;52.558;13.188;2022-11-15T10:54:53;100725.94;;;12.93;82.85
829;BME280;396;52.558;13.188;2022-11-15T10:57:22;100720.88;;;13.08;82.26
829;BME280;396;52.558;13.188;2022-11-15T10:59:52;100719.66;;;13.23;80.59
829;BME280;396;52.558;13.188;2022-11-15T11:02:31;100714.56;;;13.30;80.42
829;BME280;396;52.558;13.188;2022-11-15T11:04:58;100716.19;;;13.40;80.06
829;BME280;396;52.558;13.188;2022-11-15T11:07:27;100712.88;;;13.60;80.20
829;BME280;396;52.558;13.188;2022-11-15T11:09:59;100717.38;;;13.74;79.44
829;BME280;396;52.558;13.188;2022-11-15T11:12:28;100714.66;;;13.82;77.82
829;BME280;396;52.558;13.188;2022-11-15T11:14:57;100714.84;;;13.95;77.02
829;BME280;396;52.558;13.188;2022-11-15T11:17:34;100713.22;;;14.02;75.23
829;BME280;396;52.558;13.188;2022-11-15T11:20:09;100717.50;;;14.55;73.20
829;BME280;396;52.558;13.188;2022-11-15T11:22:45;100714.19;;;15.85;69.43
829;BME280;396;52.558;13.188;2022-11-15T11:25:23;100713.63;;;17.16;63.72
829;BME280;396;52.558;13.188;2022-11-15T11:28:05;100717.91;;;18.47;59.00
829;BME280;396;52.558;13.188;2022-11-15T11:30:45;100723.25;;;19.85;55.75
829;BME280;396;52.558;13.188;2022-11-15T11:33:19;100725.69;;;20.68;51.76
829;BME280;396;52.558;13.188;2022-11-15T11:35:53;100719.88;;;21.46;49.30
829;BME280;396;52.558;13.188;2022-11-15T11:38:44;100714.59;;;21.94;48.71
829;BME280;396;52.558;13.188;2022-11-15T11:41:27;100708.53;;;22.11;47.24
829;BME280;396;52.558;13.188;2022-11-15T11:44:05;100709.28;;;22.41;46.22
829;BME280;396;52.558;13.188;2022-11-15T11:46:47;100709.22;;;22.79;45.73
829;BME280;396;52.558;13.188;2022-11-15T11:49:20;100711.13;;;23.12;44.77
829;BME280;396;52.558;13.188;2022-11-15T11:51:53;100705.81;;;23.44;43.75
829;BME280;396;52.558;13.188;2022-11-15T11:54:25;100692.47;;;23.57;43.50
829;BME280;396;52.558;13.188;2022-11-15T11:56:57;100694.44;;;23.56;43.28
829;BME280;396;52.558;13.188;2022-11-15T11:59:31;100698.16;;;23.89;43.02
829;BME280;396;52.558;13.188;2022-11-15T12:02:02;100695.19;;;24.40;41.74
829;BME280;396;52.558;13.188;2022-11-15T12:04:40;100692.84;;;24.78;42.18
829;BME280;396;52.558;13.188;2022-11-15T12:07:13;100698.00;;;25.01;40.75
829;BME280;396;52.558;13.188;2022-11-15T12:09:43;100698.41;;;25.07;40.08
829;BME280;396;52.558;13.188;2022-11-15T12:12:15;100684.16;;;24.90;39.84
829;BME280;396;52.558;13.188;2022-11-15T12:14:48;100690.88;;;25.04;40.14
829;BME280;396;52.558;13.188;2022-11-15T12:17:20;100691.66;;;25.04;39.96
829;BME280;396;52.558;13.188;2022-11-15T12:19:49;100692.84;;;25.07;40.20
829;BME280;396;52.558;13.188;2022-11-15T12:22:19;100686.50;;;24.96;40.42
829;BME280;396;52.558;13.188;2022-11-15T12:24:51;100687.31;;;24.82;39.88
829;BME280;396;52.558;13.188;2022-11-15T12:27:23;100682.56;;;25.04;40.62
829;BME280;396;52.558;13.188;2022-11-15T12:29:56;100690.47;;;24.95;40.23
829;BME280;396;52.558;13.188;2022-11-15T12:32:27;100678.59;;;24.73;40.48
829;BME280;396;52.558;13.188;2022-11-15T12:34:57;100684.16;;;24.80;40.82
829;BME280;396;52.558;13.188;2022-11-15T12:40:29;100677.81;;;25.33;37.91
829;BME280;396;52.558;13.188;2022-11-15T12:43:07;100669.47;;;25.29;38.32
829;BME280;396;52.558;13.188;2022-11-15T12:45:51;100664.75;;;25.19;39.42
829;BME280;396;52.558;13.188;2022-11-15T12:48:49;100658.41;;;25.04;39.20
829;BME280;396;52.558;13.188;2022-11-15T12:51:20;100658.81;;;24.74;40.34
829;BME280;396;52.558;13.188;2022-11-15T12:53:46;100646.09;;;24.23;40.54
829;BME280;396;52.558;13.188;2022-11-15T12:56:23;100651.00;;;23.60;42.70
829;BME280;396;52.558;13.188;2022-11-15T12:58:55;100638.66;;;22.88;43.82
829;BME280;396;52.558;13.188;2022-11-15T13:01:59;100644.22;;;22.40;45.07
829;BME280;396;52.558;13.188;2022-11-15T13:04:29;100643.38;;;22.03;45.95
829;BME280;396;52.558;13.188;2022-11-15T13:07:00;100642.19;;;21.66;47.16
829;BME280;396;52.558;13.188;2022-11-15T13:09:51;100639.28;;;21.03;48.42
829;BME280;396;52.558;13.188;2022-11-15T13:12:52;100630.94;;;20.27;49.42
829;BME280;396;52.558;13.188;2022-11-15T13:18:42;100619.41;;;18.57;55.62
829;BME280;396;52.558;13.188;2022-11-15T13:21:21;100616.91;;;17.64;57.89
829;BME280;396;52.558;13.188;2022-11-15T13:24:12;100612.16;;;17.09;60.14
829;BME280;396;52.558;13.188;2022-11-15T13:26:39;100609.75;;;16.71;62.81
829;BME280;396;52.558;13.188;2022-11-15T13:29:14;100609.81;;;16.37;64.52
829;BME280;396;52.558;13.188;2022-11-15T13:31:43;100607.00;;;16.01;66.04
829;BME280;396;52.558;13.188;2022-11-15T13:34:19;100602.13;;;15.73;67.34
829;BME280;396;52.558;13.188;2022-11-15T13:36:46;100596.19;;;15.50;68.79
829;BME280;396;52.558;13.188;2022-11-15T13:39:25;100600.19;;;15.32;70.47
829;BME280;396;52.558;13.188;2022-11-15T13:41:52;100596.78;;;15.14;72.15
829;BME280;396;52.558;13.188;2022-11-15T13:44:20;100598.50;;;14.98;73.14
829;BME280;396;52.558;13.188;2022-11-15T13:46:47;100598.72;;;14.84;74.04
829;BME280;396;52.558;13.188;2022-11-15T13:49:14;100596.53;;;14.69;74.72
829;BME280;396;52.558;13.188;2022-11-15T13:51:44;100594.53;;;14.57;75.04